メインページ
METAR-TAF:

METAR-TAF

空港 :

ロングイェールビーン, ノルウェー

緯度: 78-15N, 経度: 015-28E, 海抜: 2m

現時点の気象観測

当レポートは18分前の23:20(UTC)に作成
西/南西の風 11kt
気温 6°C
湿度 81%
気圧 1011 hPa
視程10km以上
高度1200ftの雲はほとんどない
高度3000ftの千切れ雲あり

METAR: ENSB 162320Z 25011KT 9999 FEW012 BKN030 06/03 Q1011 RMK WIND 1400FT 27009KT

時間: 01:38 (23:38 UTC)

予報

予報は16日の 18時(UTC)から 17日の 18時(UTC)まで有効
西/南西の風 8kt
視程10km以上
高度500ftの雲はほとんどない
高度2000ftの雲は散在している

TAF: ENSB 1618/1718 25008KT 9999 FEW005 SCT020

4,000以上の空港の気象観測と天気予報(METAR報とTAF報)

利用可能な観測所は地図上に黄色い丸と赤い丸で示す。

丸の上にカーソルを重ねると観測所名を参照できる。

次にクリックすると気象観測と天気予報を参照できる。

マップの切り替え:黒色「×」印の緑ボタンをクリックして拡大、「-」印の緑ボタンをクリックして縮小、緑色の三角印をクリックして隣りの地図に切り替え


METAR-TAF: